createdAt,value
2019-04-19T00:02:07.386Z,13.10
2019-04-19T00:04:33.169Z,13.00
2019-04-19T00:07:11.134Z,13.00
2019-04-19T00:09:45.950Z,13.00
2019-04-19T00:12:20.804Z,12.90
2019-04-19T00:14:36.059Z,12.80
2019-04-19T00:17:06.072Z,12.80
2019-04-19T00:19:56.710Z,12.70
2019-04-19T00:22:25.240Z,12.70
2019-04-19T00:24:40.178Z,12.70
2019-04-19T00:27:09.741Z,12.60
2019-04-19T00:29:47.753Z,12.70
2019-04-19T00:32:24.202Z,12.70
2019-04-19T00:34:39.937Z,12.70
2019-04-19T00:37:09.958Z,12.70
2019-04-19T00:39:54.382Z,12.70
2019-04-19T00:42:28.155Z,12.70
2019-04-19T00:45:03.559Z,12.70
2019-04-19T00:47:28.301Z,12.70
2019-04-19T00:49:59.213Z,12.60
2019-04-19T00:52:40.933Z,12.60
2019-04-19T00:55:00.181Z,12.70
2019-04-19T00:57:29.196Z,12.60
2019-04-19T00:59:51.628Z,12.60
2019-04-19T01:02:20.633Z,12.70
2019-04-19T01:04:57.275Z,12.60
2019-04-19T01:07:29.722Z,12.50
2019-04-19T01:10:15.181Z,12.60
2019-04-19T01:12:46.306Z,12.60
2019-04-19T01:15:09.528Z,12.70
2019-04-19T01:17:46.921Z,12.60
2019-04-19T01:20:04.930Z,12.60
2019-04-19T01:22:31.366Z,12.50
2019-04-19T01:25:03.535Z,12.50
2019-04-19T01:27:34.719Z,12.50
2019-04-19T01:30:03.010Z,12.40
2019-04-19T01:32:37.199Z,12.40
2019-04-19T01:35:10.194Z,12.30
2019-04-19T01:37:35.351Z,12.30
2019-04-19T01:40:22.491Z,12.30
2019-04-19T01:42:53.946Z,12.30
2019-04-19T01:45:26.533Z,12.20
2019-04-19T01:47:58.985Z,12.20
2019-04-19T01:50:36.368Z,12.20
2019-04-19T01:53:10.789Z,12.20
2019-04-19T01:55:24.837Z,12.10
2019-04-19T01:57:49.294Z,12.00
2019-04-19T02:00:24.462Z,11.90
2019-04-19T02:02:54.795Z,11.90
2019-04-19T02:05:22.148Z,11.90
2019-04-19T02:07:58.040Z,11.90
2019-04-19T02:10:41.937Z,11.80
2019-04-19T02:13:11.651Z,11.80
2019-04-19T02:15:37.596Z,11.80
2019-04-19T02:17:59.325Z,11.80
2019-04-19T02:20:36.432Z,11.80
2019-04-19T02:23:06.196Z,11.70
2019-04-19T02:25:32.846Z,11.70
2019-04-19T02:28:02.696Z,11.80
2019-04-19T02:30:46.276Z,11.90
2019-04-19T02:33:29.494Z,11.80
2019-04-19T02:35:59.805Z,11.80
2019-04-19T02:38:29.647Z,11.80
2019-04-19T02:41:10.711Z,11.80
2019-04-19T02:43:38.589Z,11.80
2019-04-19T02:46:17.044Z,11.80
2019-04-19T02:48:37.867Z,11.70
2019-04-19T02:53:29.899Z,11.70
2019-04-19T02:56:11.038Z,11.70
2019-04-19T02:58:34.035Z,11.70
2019-04-19T03:03:34.181Z,11.60
2019-04-19T03:05:58.647Z,11.60
2019-04-19T03:08:14.501Z,11.60
2019-04-19T03:10:58.178Z,11.60
2019-04-19T03:13:32.845Z,11.50
2019-04-19T03:15:57.422Z,11.60
2019-04-19T03:18:41.305Z,11.60
2019-04-19T03:20:54.138Z,11.50
2019-04-19T03:23:25.990Z,11.50
2019-04-19T03:25:58.944Z,11.40
2019-04-19T03:28:29.312Z,11.40
2019-04-19T03:31:14.620Z,11.30
2019-04-19T03:33:50.605Z,11.30
2019-04-19T03:36:14.933Z,11.20
2019-04-19T03:38:39.818Z,11.20
2019-04-19T03:41:26.973Z,11.20
2019-04-19T03:44:01.739Z,11.30
2019-04-19T03:46:14.125Z,11.30
2019-04-19T03:48:43.881Z,11.20
2019-04-19T03:51:34.322Z,11.20
2019-04-19T03:53:53.021Z,11.10
2019-04-19T03:56:22.200Z,11.10
2019-04-19T03:58:30.372Z,11.10
2019-04-19T04:01:00.086Z,11.10
2019-04-19T04:03:35.769Z,11.10
2019-04-19T04:05:59.963Z,11.10
2019-04-19T04:08:31.419Z,11.20
2019-04-19T04:11:08.119Z,11.20
2019-04-19T04:13:40.750Z,11.10
2019-04-19T04:16:17.642Z,11.10
2019-04-19T04:18:36.520Z,11.00
2019-04-19T04:21:05.555Z,10.90
2019-04-19T04:23:41.013Z,10.80
2019-04-19T04:26:11.456Z,10.80
2019-04-19T04:28:48.246Z,10.70
2019-04-19T04:31:17.418Z,10.60
2019-04-19T04:33:49.538Z,10.60
2019-04-19T04:36:25.358Z,10.60
2019-04-19T04:38:43.077Z,10.60
2019-04-19T04:41:15.668Z,10.70
2019-04-19T04:43:53.986Z,10.80
2019-04-19T04:46:32.501Z,11.00
2019-04-19T04:48:58.261Z,11.10
2019-04-19T04:51:34.919Z,11.30
2019-04-19T04:53:47.628Z,11.40
2019-04-19T04:56:19.493Z,11.50
2019-04-19T04:58:49.582Z,11.70
2019-04-19T05:01:29.043Z,11.90
2019-04-19T05:04:09.062Z,12.00
2019-04-19T05:06:36.414Z,12.20
2019-04-19T05:09:11.274Z,12.30
2019-04-19T05:11:37.719Z,12.50
2019-04-19T05:14:11.339Z,12.70
2019-04-19T05:16:46.439Z,12.80
2019-04-19T05:19:10.759Z,12.90
2019-04-19T05:21:40.074Z,13.00
2019-04-19T05:24:18.918Z,13.20
2019-04-19T05:27:05.886Z,13.30
2019-04-19T05:29:07.216Z,13.60
2019-04-19T05:31:35.029Z,13.80
2019-04-19T05:34:17.432Z,13.80
2019-04-19T05:36:43.711Z,13.70
2019-04-19T05:39:20.042Z,13.70
2019-04-19T05:41:48.982Z,13.80
2019-04-19T05:46:53.409Z,14.30
2019-04-19T05:49:20.008Z,14.50
2019-04-19T05:51:51.196Z,14.70
2019-04-19T05:54:10.180Z,14.70
2019-04-19T05:56:37.304Z,14.70
2019-04-19T05:59:15.585Z,14.80
2019-04-19T06:01:57.919Z,14.90
2019-04-19T06:04:29.094Z,15.10
2019-04-19T06:06:56.809Z,15.30
2019-04-19T06:09:09.229Z,15.50
2019-04-19T06:11:41.269Z,15.50
2019-04-19T06:14:32.176Z,15.50
2019-04-19T06:16:57.375Z,15.70
2019-04-19T06:19:29.283Z,15.70
2019-04-19T06:21:53.585Z,15.80
2019-04-19T06:24:31.808Z,16.10
2019-04-19T06:27:12.805Z,16.10
2019-04-19T06:29:39.348Z,16.20
2019-04-19T06:32:11.279Z,16.70
2019-04-19T06:34:31.191Z,16.80
2019-04-19T06:36:57.566Z,17.10
2019-04-19T06:39:16.333Z,17.50
2019-04-19T06:41:54.118Z,17.20
2019-04-19T06:44:41.758Z,17.10
2019-04-19T06:46:58.497Z,17.30
2019-04-19T06:49:23.151Z,16.80
2019-04-19T06:51:55.447Z,16.50
2019-04-19T06:54:24.863Z,16.60
2019-04-19T06:57:00.756Z,16.90
2019-04-19T06:59:36.863Z,17.20
2019-04-19T07:01:54.024Z,17.60
2019-04-19T07:04:21.039Z,17.70
2019-04-19T07:07:12.128Z,18.10
2019-04-19T07:09:48.617Z,18.30
2019-04-19T07:12:10.638Z,18.50
2019-04-19T07:14:26.604Z,18.60
2019-04-19T07:17:12.454Z,18.90
2019-04-19T07:19:44.699Z,18.50
2019-04-19T07:22:08.046Z,18.20
2019-04-19T07:24:44.242Z,18.20
2019-04-19T07:27:11.162Z,18.20
2019-04-19T07:29:25.472Z,18.10
2019-04-19T07:31:55.731Z,18.00
2019-04-19T07:34:57.098Z,18.60
2019-04-19T07:37:13.041Z,18.80
2019-04-19T07:39:56.892Z,19.10
2019-04-19T07:42:19.554Z,19.20
2019-04-19T07:44:37.835Z,18.80
2019-04-19T07:47:15.051Z,18.50
2019-04-19T07:49:40.369Z,18.80
2019-04-19T07:52:12.413Z,19.40
2019-04-19T07:54:36.090Z,20.30
2019-04-19T07:57:39.531Z,20.40
2019-04-19T08:00:00.643Z,20.50
2019-04-19T08:05:07.625Z,20.00
2019-04-19T08:10:03.887Z,19.80
2019-04-19T08:12:55.552Z,20.00
2019-04-19T08:15:22.299Z,20.10
2019-04-19T08:17:55.108Z,20.90
2019-04-19T08:27:41.319Z,19.70
2019-04-19T08:30:04.453Z,20.30
2019-04-19T08:32:32.293Z,19.90
2019-04-19T08:35:06.974Z,19.90
2019-04-19T08:37:36.557Z,20.20
2019-04-19T08:40:22.068Z,20.40
2019-04-19T08:42:51.382Z,20.20
2019-04-19T08:45:11.028Z,20.10
2019-04-19T08:47:43.247Z,20.10
2019-04-19T08:50:12.176Z,20.40
2019-04-19T08:52:40.689Z,20.50
2019-04-19T08:55:30.520Z,20.40
2019-04-19T08:57:48.782Z,20.40
2019-04-19T09:02:59.026Z,20.50
2019-04-19T09:05:31.229Z,20.80
2019-04-19T09:08:05.296Z,21.30
2019-04-19T09:10:45.543Z,20.90
2019-04-19T09:13:19.640Z,21.00
2019-04-19T09:15:33.070Z,20.80
2019-04-19T09:18:26.124Z,20.80
2019-04-19T09:20:41.474Z,21.00
2019-04-19T09:23:11.171Z,21.60
2019-04-19T09:25:39.422Z,21.60
2019-04-19T09:28:27.225Z,21.50
2019-04-19T09:30:43.320Z,21.40
2019-04-19T09:33:00.324Z,21.60
2019-04-19T09:35:36.573Z,21.60
2019-04-19T09:38:11.383Z,21.60
2019-04-19T09:40:41.430Z,21.80
2019-04-19T09:43:18.737Z,22.30
2019-04-19T09:45:33.973Z,22.60
2019-04-19T09:48:03.252Z,22.50
2019-04-19T09:50:51.183Z,22.50
2019-04-19T09:53:32.048Z,22.30
2019-04-19T09:56:00.277Z,22.20
2019-04-19T09:58:25.375Z,22.60
2019-04-19T10:00:38.526Z,23.10
2019-04-19T10:03:18.951Z,23.00
2019-04-19T10:05:38.923Z,22.70
2019-04-19T10:08:07.859Z,21.90
2019-04-19T10:10:36.848Z,22.00
2019-04-19T10:13:06.040Z,22.40
2019-04-19T10:15:36.431Z,22.80
2019-04-19T10:18:05.312Z,22.20
2019-04-19T10:20:36.416Z,21.80
2019-04-19T10:23:06.951Z,21.80
2019-04-19T10:25:40.044Z,21.90
2019-04-19T10:28:07.895Z,22.00
2019-04-19T10:30:38.576Z,22.30
2019-04-19T10:33:08.642Z,22.20
2019-04-19T10:35:37.827Z,21.90
2019-04-19T10:38:07.317Z,22.40
2019-04-19T10:40:37.558Z,22.60
2019-04-19T10:43:07.229Z,22.40
2019-04-19T10:45:36.224Z,22.10
2019-04-19T10:48:05.314Z,22.10
2019-04-19T10:50:42.685Z,22.30
2019-04-19T10:53:06.284Z,22.80
2019-04-19T10:55:36.598Z,22.90
2019-04-19T10:58:05.715Z,22.40
2019-04-19T11:00:35.552Z,21.90
2019-04-19T11:03:06.265Z,22.20
2019-04-19T11:05:36.790Z,22.50
2019-04-19T11:08:05.888Z,22.80
2019-04-19T11:10:35.688Z,22.80
2019-04-19T11:13:05.138Z,22.60
2019-04-19T11:15:34.213Z,22.90
2019-04-19T11:18:03.623Z,22.80
2019-04-19T11:20:40.326Z,23.00
2019-04-19T11:23:03.847Z,22.60
2019-04-19T11:25:33.376Z,22.50
2019-04-19T11:28:02.996Z,22.30
2019-04-19T11:30:34.970Z,22.60
2019-04-19T11:33:05.663Z,23.00
2019-04-19T11:35:37.145Z,23.10
2019-04-19T11:38:06.970Z,22.90
2019-04-19T11:40:37.287Z,22.90
2019-04-19T11:43:07.293Z,23.40
2019-04-19T11:45:37.793Z,23.30
2019-04-19T11:48:06.926Z,23.50
2019-04-19T11:50:35.907Z,23.30
2019-04-19T11:53:06.387Z,23.40
2019-04-19T11:55:36.595Z,23.50
2019-04-19T11:58:06.369Z,23.30
2019-04-19T12:00:37.918Z,23.50
2019-04-19T12:03:06.982Z,23.50
2019-04-19T12:05:35.986Z,24.00
2019-04-19T12:08:04.864Z,24.10
2019-04-19T12:10:34.376Z,23.90
2019-04-19T12:13:04.340Z,23.90
2019-04-19T12:15:34.250Z,24.10
2019-04-19T12:18:04.239Z,23.90
2019-04-19T12:20:33.240Z,24.20
2019-04-19T12:23:02.118Z,23.90
2019-04-19T12:25:31.056Z,23.90
2019-04-19T12:27:59.776Z,24.20
2019-04-19T12:30:29.572Z,24.50
2019-04-19T12:32:59.546Z,24.60
2019-04-19T12:35:29.673Z,24.60
2019-04-19T12:37:59.790Z,24.20
2019-04-19T12:40:30.321Z,24.10
2019-04-19T12:43:00.047Z,24.40
2019-04-19T12:45:30.175Z,24.60
2019-04-19T12:47:59.106Z,24.80
2019-04-19T12:50:33.013Z,24.50
2019-04-19T12:53:02.112Z,24.70
2019-04-19T12:55:32.323Z,24.80
2019-04-19T12:58:06.056Z,24.60
2019-04-19T13:00:36.620Z,24.90
2019-04-19T13:03:07.608Z,24.60
2019-04-19T13:05:39.368Z,24.60
2019-04-19T13:08:09.509Z,24.60
2019-04-19T13:10:38.721Z,24.50
2019-04-19T13:13:07.806Z,24.60
2019-04-19T13:15:36.777Z,24.70
2019-04-19T13:18:06.511Z,24.50
2019-04-19T13:20:37.107Z,24.20
2019-04-19T13:23:06.367Z,24.40
2019-04-19T13:25:38.036Z,24.80
2019-04-19T13:28:07.941Z,24.70
2019-04-19T13:30:44.414Z,24.40
2019-04-19T13:33:08.135Z,24.20
2019-04-19T13:35:39.280Z,24.60
2019-04-19T13:38:09.705Z,24.20
2019-04-19T13:40:40.683Z,24.40
2019-04-19T13:43:10.963Z,24.60
2019-04-19T13:45:41.249Z,24.70
2019-04-19T13:48:10.507Z,24.20
2019-04-19T13:50:42.336Z,23.90
2019-04-19T13:53:10.871Z,24.20
2019-04-19T13:55:39.869Z,24.30
2019-04-19T13:58:09.564Z,24.00
2019-04-19T14:00:42.605Z,24.10
2019-04-19T14:03:12.033Z,24.00
2019-04-19T14:05:41.742Z,24.30
2019-04-19T14:08:11.145Z,24.10
2019-04-19T14:10:41.332Z,24.10
2019-04-19T14:13:10.586Z,24.00
2019-04-19T14:15:40.783Z,23.60
2019-04-19T14:18:10.883Z,23.20
2019-04-19T14:20:45.136Z,23.00
2019-04-19T14:23:10.256Z,22.90
2019-04-19T14:25:39.168Z,23.10
2019-04-19T14:28:09.407Z,23.30
2019-04-19T14:30:39.513Z,23.20
2019-04-19T14:33:08.501Z,23.20
2019-04-19T14:35:37.803Z,23.10
2019-04-19T14:38:07.553Z,23.00
2019-04-19T14:40:37.618Z,23.00
2019-04-19T14:43:06.824Z,22.90
2019-04-19T14:45:38.071Z,22.90
2019-04-19T14:48:08.832Z,23.00
2019-04-19T14:50:46.234Z,23.10
2019-04-19T14:53:10.147Z,23.00
2019-04-19T14:55:41.365Z,22.90
2019-04-19T14:58:11.064Z,23.00
2019-04-19T15:00:43.089Z,23.10
2019-04-19T15:03:14.685Z,23.00
2019-04-19T15:05:45.903Z,23.00
2019-04-19T15:08:15.056Z,22.90
2019-04-19T15:10:45.202Z,22.90
2019-04-19T15:13:14.738Z,22.80
2019-04-19T15:15:43.799Z,22.80
2019-04-19T15:18:13.114Z,23.00
2019-04-19T15:20:53.908Z,23.00
2019-04-19T15:23:12.510Z,22.90
2019-04-19T15:25:42.500Z,22.90
2019-04-19T15:28:12.887Z,22.80
2019-04-19T15:30:44.934Z,22.80
2019-04-19T15:33:12.583Z,22.80
2019-04-19T15:35:41.592Z,22.90
2019-04-19T15:38:10.468Z,22.80
2019-04-19T15:40:40.384Z,22.70
2019-04-19T15:43:09.335Z,22.70
2019-04-19T15:45:38.969Z,22.70
2019-04-19T15:48:08.950Z,22.60
2019-04-19T15:50:38.271Z,22.70
2019-04-19T15:53:09.151Z,22.70
2019-04-19T15:55:37.858Z,22.70
2019-04-19T15:58:08.472Z,22.70
2019-04-19T16:00:40.328Z,22.70
2019-04-19T16:03:11.933Z,22.70
2019-04-19T16:05:42.400Z,22.70
2019-04-19T16:08:13.821Z,22.60
2019-04-19T16:10:44.652Z,22.60
2019-04-19T16:13:13.916Z,22.70
2019-04-19T16:15:42.748Z,22.70
2019-04-19T16:18:11.709Z,22.70
2019-04-19T16:20:41.091Z,22.60
2019-04-19T16:23:12.099Z,22.60
2019-04-19T16:25:42.223Z,22.60
2019-04-19T16:28:11.606Z,22.50
2019-04-19T16:30:40.595Z,22.50
2019-04-19T16:33:09.484Z,22.50
2019-04-19T16:35:38.482Z,22.50
2019-04-19T16:38:07.743Z,22.50
2019-04-19T16:40:36.977Z,22.40
2019-04-19T16:43:05.952Z,22.30
2019-04-19T16:45:35.727Z,22.30
2019-04-19T16:48:06.608Z,22.40
2019-04-19T16:50:36.508Z,22.30
2019-04-19T16:53:06.895Z,22.30
2019-04-19T16:55:36.028Z,22.30
2019-04-19T16:58:06.308Z,22.30
2019-04-19T17:00:38.680Z,22.30
2019-04-19T17:03:07.519Z,22.30
2019-04-19T17:05:36.861Z,22.20
2019-04-19T17:08:07.037Z,22.20
2019-04-19T17:10:36.531Z,22.10
2019-04-19T17:13:06.713Z,22.10
2019-04-19T17:15:36.951Z,22.10
2019-04-19T17:18:08.822Z,22.10
2019-04-19T17:20:39.489Z,22.10
2019-04-19T17:23:08.628Z,22.00
2019-04-19T17:25:39.115Z,22.00
2019-04-19T17:28:08.216Z,21.90
2019-04-19T17:30:38.106Z,21.90
2019-04-19T17:33:08.263Z,21.80
2019-04-19T17:35:38.767Z,21.80
2019-04-19T17:38:08.097Z,21.80
2019-04-19T17:40:38.470Z,21.70
2019-04-19T17:43:07.688Z,21.70
2019-04-19T17:45:37.767Z,21.60
2019-04-19T17:48:06.704Z,21.50
2019-04-19T17:50:38.863Z,21.50
2019-04-19T17:53:08.624Z,21.40
2019-04-19T17:55:43.458Z,21.30
2019-04-19T17:58:09.540Z,21.30
2019-04-19T18:00:39.847Z,21.30
2019-04-19T18:03:09.029Z,21.20
2019-04-19T18:05:38.119Z,21.10
2019-04-19T18:08:08.371Z,21.00
2019-04-19T18:10:45.422Z,21.00
2019-04-19T18:13:08.400Z,20.90
2019-04-19T18:15:42.662Z,20.90
2019-04-19T18:18:11.993Z,20.80
2019-04-19T18:20:47.798Z,20.80
2019-04-19T18:23:23.886Z,20.70
2019-04-19T18:25:45.137Z,20.60
2019-04-19T18:28:15.981Z,20.50
2019-04-19T18:30:49.042Z,20.40
2019-04-19T18:33:18.074Z,20.30
2019-04-19T18:35:47.657Z,20.30
2019-04-19T18:38:20.101Z,20.30
2019-04-19T18:40:47.289Z,20.10
2019-04-19T18:43:27.769Z,20.00
2019-04-19T18:45:47.912Z,20.00
2019-04-19T18:48:17.651Z,19.90
2019-04-19T18:50:49.366Z,19.80
2019-04-19T18:53:28.527Z,19.90
2019-04-19T18:55:50.688Z,19.80
2019-04-19T18:58:21.316Z,19.70
2019-04-19T19:00:51.768Z,19.60
2019-04-19T19:03:20.040Z,19.50
2019-04-19T19:05:55.681Z,19.50
2019-04-19T19:08:26.098Z,19.40
2019-04-19T19:10:52.275Z,19.30
2019-04-19T19:13:27.609Z,19.20
2019-04-19T19:15:54.576Z,19.10
2019-04-19T19:18:25.984Z,19.00
2019-04-19T19:20:58.928Z,18.90
2019-04-19T19:23:42.188Z,18.90
2019-04-19T19:26:10.026Z,18.80
2019-04-19T19:28:24.970Z,18.80
2019-04-19T19:30:56.699Z,18.70
2019-04-19T19:33:35.411Z,18.70
2019-04-19T19:36:01.039Z,18.50
2019-04-19T19:38:30.891Z,18.50
2019-04-19T19:41:08.091Z,18.40
2019-04-19T19:43:44.809Z,18.30
2019-04-19T19:46:23.126Z,18.30
2019-04-19T19:49:05.714Z,18.20
2019-04-19T19:51:17.769Z,18.10
2019-04-19T19:56:26.108Z,18.00
2019-04-19T19:58:39.796Z,18.00
2019-04-19T20:01:23.700Z,17.90
2019-04-19T20:03:42.017Z,17.80
2019-04-19T20:06:12.527Z,17.70
2019-04-19T20:08:41.105Z,17.80
2019-04-19T20:11:10.324Z,17.70
2019-04-19T20:13:42.447Z,17.70
2019-04-19T20:16:16.425Z,17.60
2019-04-19T20:18:44.206Z,17.50
2019-04-19T20:21:14.822Z,17.50
2019-04-19T20:23:55.122Z,17.40
2019-04-19T20:26:18.038Z,17.40
2019-04-19T20:28:43.189Z,17.50
2019-04-19T20:31:15.848Z,17.40
2019-04-19T20:33:50.103Z,17.40
2019-04-19T20:36:14.676Z,17.30
2019-04-19T20:38:51.589Z,17.20
2019-04-19T20:41:14.428Z,17.20
2019-04-19T20:43:57.148Z,17.10
2019-04-19T20:46:20.053Z,17.10
2019-04-19T20:48:45.877Z,17.00
2019-04-19T20:51:34.037Z,17.00
2019-04-19T20:53:59.305Z,16.90
2019-04-19T20:56:46.878Z,16.80
2019-04-19T20:58:53.407Z,16.80
2019-04-19T21:01:21.193Z,16.60
2019-04-19T21:03:50.062Z,16.30
2019-04-19T21:06:25.985Z,16.20
2019-04-19T21:08:52.633Z,16.20
2019-04-19T21:11:21.420Z,16.20
2019-04-19T21:13:57.428Z,16.10
2019-04-19T21:16:27.043Z,16.10
2019-04-19T21:19:02.524Z,16.00
2019-04-19T21:21:31.390Z,16.10
2019-04-19T21:24:04.975Z,16.30
2019-04-19T21:26:33.069Z,16.40
2019-04-19T21:29:01.653Z,16.40
2019-04-19T21:31:37.295Z,16.60
2019-04-19T21:34:04.443Z,16.50
2019-04-19T21:36:38.493Z,16.60
2019-04-19T21:39:06.470Z,16.60
2019-04-19T21:41:35.473Z,16.60
2019-04-19T21:44:05.001Z,16.60
2019-04-19T21:46:35.256Z,16.50
2019-04-19T21:49:11.026Z,16.40
2019-04-19T21:51:37.790Z,16.30
2019-04-19T21:54:06.412Z,16.20
2019-04-19T21:56:39.027Z,16.10
2019-04-19T21:59:07.016Z,16.10
2019-04-19T22:01:39.058Z,16.10
2019-04-19T22:04:10.858Z,15.90
2019-04-19T22:06:39.085Z,15.80
2019-04-19T22:09:14.243Z,15.70
2019-04-19T22:11:38.840Z,15.60
2019-04-19T22:14:08.650Z,15.60
2019-04-19T22:16:43.020Z,15.50
2019-04-19T22:19:09.712Z,15.40
2019-04-19T22:21:42.600Z,15.40
2019-04-19T22:24:09.223Z,15.30
2019-04-19T22:26:43.265Z,15.30
2019-04-19T22:29:09.328Z,15.20
2019-04-19T22:31:39.437Z,15.10
2019-04-19T22:34:08.489Z,15.10
2019-04-19T22:36:43.882Z,15.00
2019-04-19T22:39:09.683Z,15.00
2019-04-19T22:41:38.950Z,15.00
2019-04-19T22:44:09.006Z,14.90
2019-04-19T22:46:41.595Z,14.80
2019-04-19T22:49:11.269Z,14.80
2019-04-19T22:51:38.983Z,14.80
2019-04-19T22:54:08.598Z,14.90
2019-04-19T22:56:51.581Z,14.80
2019-04-19T22:59:13.185Z,14.80
2019-04-19T23:01:43.884Z,14.80
2019-04-19T23:04:16.122Z,14.80
2019-04-19T23:06:42.823Z,14.70
2019-04-19T23:09:17.303Z,14.70
2019-04-19T23:11:43.697Z,14.60
2019-04-19T23:14:13.631Z,14.60
2019-04-19T23:16:50.168Z,14.50
2019-04-19T23:19:14.672Z,14.50
2019-04-19T23:21:48.385Z,14.40
2019-04-19T23:24:16.254Z,14.40
2019-04-19T23:27:01.487Z,14.40
2019-04-19T23:29:22.122Z,14.30
2019-04-19T23:31:49.305Z,14.20
2019-04-19T23:34:16.772Z,14.10
2019-04-19T23:36:50.817Z,14.00
2019-04-19T23:39:17.286Z,14.00
2019-04-19T23:41:46.950Z,13.90
2019-04-19T23:44:18.351Z,13.90
2019-04-19T23:46:47.482Z,13.90
2019-04-19T23:49:18.950Z,13.90
2019-04-19T23:51:47.365Z,13.90
2019-04-19T23:54:22.436Z,13.90
2019-04-19T23:56:59.062Z,13.90
2019-04-19T23:59:20.739Z,13.90
